Terminal Aerodrome Forecast
Issued by NWS

Home | Current Version | Previous Version | Text Only | Print | Product List | Glossary On
Versions: 1 2 3 4 5 6 7 8 9 10 11 12 13 14 15 16 17 18 19 20 21 22 23 24 25 26
631
FTUS43 KGRR 181253 AAA
TAFJXN
TAF AMD
KJXN 181253Z 1813/1912 21009KT 2SM -RA BR OVC006
     FM181400 22009KT 1 1/2SM -DZ BR OVC004
     FM181900 24011KT 5SM BR OVC007
     FM190300 22013KT 6SM BR OVC015=

USA.gov is the U.S. government's official web portal to all federal, state and local government web resources and services.